createdAt,value
2022-12-12T00:00:42.000Z,-2.78
2022-12-12T00:01:42.000Z,-2.74
2022-12-12T00:02:42.000Z,-2.76
2022-12-12T00:03:42.000Z,-2.76
2022-12-12T00:04:42.000Z,-2.76
2022-12-12T00:05:42.000Z,-2.76
2022-12-12T00:06:42.000Z,-2.82
2022-12-12T00:07:42.000Z,-2.79
2022-12-12T00:08:42.000Z,-2.81
2022-12-12T00:09:42.000Z,-2.78
2022-12-12T00:10:42.000Z,-2.81
2022-12-12T00:11:42.000Z,-2.78
2022-12-12T00:12:42.000Z,-2.76
2022-12-12T00:13:42.000Z,-2.78
2022-12-12T00:14:42.000Z,-2.79
2022-12-12T00:15:42.000Z,-2.79
2022-12-12T00:16:42.000Z,-2.79
2022-12-12T00:17:42.000Z,-2.81
2022-12-12T00:18:42.000Z,-2.79
2022-12-12T00:19:42.000Z,-2.81
2022-12-12T00:20:42.000Z,-2.79
2022-12-12T00:21:42.000Z,-2.85
2022-12-12T00:22:42.000Z,-2.82
2022-12-12T00:23:42.000Z,-2.85
2022-12-12T00:24:42.000Z,-2.82
2022-12-12T00:25:42.000Z,-2.85
2022-12-12T00:26:42.000Z,-2.78
2022-12-12T00:27:42.000Z,-2.82
2022-12-12T00:28:42.000Z,-2.81
2022-12-12T00:29:42.000Z,-2.85
2022-12-12T00:30:42.000Z,-2.82
2022-12-12T00:31:42.000Z,-2.81
2022-12-12T00:32:42.000Z,-2.81
2022-12-12T00:33:42.000Z,-2.81
2022-12-12T00:34:42.000Z,-2.82
2022-12-12T00:35:42.000Z,-2.78
2022-12-12T00:36:42.000Z,-2.82
2022-12-12T00:37:42.000Z,-2.82
2022-12-12T00:38:42.000Z,-2.79
2022-12-12T00:39:42.000Z,-2.79
2022-12-12T00:40:42.000Z,-2.79
2022-12-12T00:41:42.000Z,-2.78
2022-12-12T00:42:42.000Z,-2.78
2022-12-12T00:43:42.000Z,-2.76
2022-12-12T00:44:42.000Z,-2.78
2022-12-12T00:45:42.000Z,-2.75
2022-12-12T00:46:42.000Z,-2.78
2022-12-12T00:47:42.000Z,-2.74
2022-12-12T00:48:42.000Z,-2.78
2022-12-12T00:49:42.000Z,-2.78
2022-12-12T00:50:42.000Z,-2.76
2022-12-12T00:51:42.000Z,-2.76
2022-12-12T00:52:42.000Z,-2.74
2022-12-12T00:53:42.000Z,-2.76
2022-12-12T00:54:42.000Z,-2.72
2022-12-12T00:55:42.000Z,-2.74
2022-12-12T00:56:42.000Z,-2.75
2022-12-12T00:57:42.000Z,-2.74
2022-12-12T00:58:42.000Z,-2.74
2022-12-12T00:59:42.000Z,-2.74
2022-12-12T01:00:42.000Z,-2.72
2022-12-12T01:01:42.000Z,-2.74
2022-12-12T01:02:42.000Z,-2.74
2022-12-12T01:03:42.000Z,-2.74
2022-12-12T01:04:41.000Z,-2.75
2022-12-12T01:05:41.000Z,-2.74
2022-12-12T01:06:41.000Z,-2.71
2022-12-12T01:07:41.000Z,-2.71
2022-12-12T01:08:41.000Z,-2.72
2022-12-12T01:09:41.000Z,-2.76
2022-12-12T01:10:41.000Z,-2.72
2022-12-12T01:11:41.000Z,-2.75
2022-12-12T01:12:41.000Z,-2.75
2022-12-12T01:13:41.000Z,-2.75
2022-12-12T01:14:41.000Z,-2.79
2022-12-12T01:15:41.000Z,-2.82
2022-12-12T01:16:41.000Z,-2.81
2022-12-12T01:17:41.000Z,-2.81
2022-12-12T01:18:41.000Z,-2.82
2022-12-12T01:19:41.000Z,-2.79
2022-12-12T01:20:41.000Z,-2.81
2022-12-12T01:21:41.000Z,-2.82
2022-12-12T01:22:41.000Z,-2.82
2022-12-12T01:23:41.000Z,-2.86
2022-12-12T01:24:41.000Z,-2.81
2022-12-12T01:25:41.000Z,-2.85
2022-12-12T01:26:41.000Z,-2.82
2022-12-12T01:27:41.000Z,-2.86
2022-12-12T01:28:41.000Z,-2.89
2022-12-12T01:29:41.000Z,-2.87
2022-12-12T01:30:41.000Z,-2.90
2022-12-12T01:31:41.000Z,-2.90
2022-12-12T01:32:41.000Z,-2.92
2022-12-12T01:33:41.000Z,-2.92
2022-12-12T01:34:41.000Z,-2.96
2022-12-12T01:35:41.000Z,-2.97
2022-12-12T01:36:41.000Z,-2.94
2022-12-12T01:37:41.000Z,-2.96
2022-12-12T01:38:41.000Z,-2.97
2022-12-12T01:39:41.000Z,-3.02
2022-12-12T01:40:41.000Z,-2.99
2022-12-12T01:41:41.000Z,-3.02
2022-12-12T01:42:41.000Z,-3.04
2022-12-12T01:43:41.000Z,-3.02
2022-12-12T01:44:41.000Z,-3.05
2022-12-12T01:45:41.000Z,-3.07
2022-12-12T01:46:41.000Z,-3.10
2022-12-12T01:47:41.000Z,-3.08
2022-12-12T01:48:41.000Z,-3.11
2022-12-12T01:49:41.000Z,-3.07
2022-12-12T01:50:41.000Z,-3.13
2022-12-12T01:51:41.000Z,-3.13
2022-12-12T01:52:41.000Z,-3.15
2022-12-12T01:53:41.000Z,-3.17
2022-12-12T01:54:41.000Z,-3.20
2022-12-12T01:55:41.000Z,-3.20
2022-12-12T01:56:41.000Z,-3.20
2022-12-12T01:57:41.000Z,-3.22
2022-12-12T01:58:41.000Z,-3.22
2022-12-12T01:59:41.000Z,-3.20
2022-12-12T02:00:41.000Z,-3.25
2022-12-12T02:01:41.000Z,-3.25
2022-12-12T02:02:41.000Z,-3.25
2022-12-12T02:03:41.000Z,-3.22
2022-12-12T02:04:41.000Z,-3.22
2022-12-12T02:05:41.000Z,-3.25
2022-12-12T02:06:41.000Z,-3.26
2022-12-12T02:07:41.000Z,-3.23
2022-12-12T02:08:41.000Z,-3.26
2022-12-12T02:09:41.000Z,-3.28
2022-12-12T02:10:41.000Z,-3.29
2022-12-12T02:11:41.000Z,-3.25
2022-12-12T02:12:41.000Z,-3.28
2022-12-12T02:13:41.000Z,-3.31
2022-12-12T02:14:41.000Z,-3.26
2022-12-12T02:15:41.000Z,-3.26
2022-12-12T02:16:41.000Z,-3.31
2022-12-12T02:17:41.000Z,-3.26
2022-12-12T02:18:41.000Z,-3.25
2022-12-12T02:19:41.000Z,-3.25
2022-12-12T02:20:41.000Z,-3.26
2022-12-12T02:21:41.000Z,-3.23
2022-12-12T02:22:41.000Z,-3.23
2022-12-12T02:23:40.000Z,-3.25
2022-12-12T02:24:40.000Z,-3.23
2022-12-12T02:25:40.000Z,-3.28
2022-12-12T02:26:40.000Z,-3.28
2022-12-12T02:27:40.000Z,-3.28
2022-12-12T02:28:40.000Z,-3.26
2022-12-12T02:29:40.000Z,-3.26
2022-12-12T02:30:40.000Z,-3.26
2022-12-12T02:31:40.000Z,-3.28
2022-12-12T02:32:40.000Z,-3.29
2022-12-12T02:33:40.000Z,-3.32
2022-12-12T02:34:40.000Z,-3.31
2022-12-12T02:35:40.000Z,-3.31
2022-12-12T02:36:40.000Z,-3.29
2022-12-12T02:37:40.000Z,-3.32
2022-12-12T02:38:40.000Z,-3.32
2022-12-12T02:39:40.000Z,-3.36
2022-12-12T02:40:40.000Z,-3.33
2022-12-12T02:41:40.000Z,-3.35
2022-12-12T02:42:40.000Z,-3.33
2022-12-12T02:43:40.000Z,-3.33
2022-12-12T02:44:40.000Z,-3.38
2022-12-12T02:45:40.000Z,-3.36
2022-12-12T02:46:40.000Z,-3.36
2022-12-12T02:47:40.000Z,-3.33
2022-12-12T02:48:40.000Z,-3.33
2022-12-12T02:49:40.000Z,-3.35
2022-12-12T02:50:40.000Z,-3.32
2022-12-12T02:51:40.000Z,-3.35
2022-12-12T02:52:40.000Z,-3.31
2022-12-12T02:53:40.000Z,-3.29
2022-12-12T02:54:40.000Z,-3.31
2022-12-12T02:55:40.000Z,-3.29
2022-12-12T02:56:40.000Z,-3.25
2022-12-12T02:57:40.000Z,-3.23
2022-12-12T02:58:40.000Z,-3.26
2022-12-12T02:59:40.000Z,-3.26
2022-12-12T03:00:40.000Z,-3.26
2022-12-12T03:01:40.000Z,-3.31
2022-12-12T03:02:40.000Z,-3.25
2022-12-12T03:03:40.000Z,-3.29
2022-12-12T03:04:40.000Z,-3.32
2022-12-12T03:05:40.000Z,-3.31
2022-12-12T03:06:40.000Z,-3.32
2022-12-12T03:07:40.000Z,-3.32
2022-12-12T03:08:40.000Z,-3.33
2022-12-12T03:09:40.000Z,-3.36
2022-12-12T03:10:40.000Z,-3.32
2022-12-12T03:11:40.000Z,-3.33
2022-12-12T03:12:40.000Z,-3.35
2022-12-12T03:13:40.000Z,-3.31
2022-12-12T03:14:40.000Z,-3.31
2022-12-12T03:15:40.000Z,-3.31
2022-12-12T03:16:40.000Z,-3.33
2022-12-12T03:17:40.000Z,-3.29
2022-12-12T03:18:40.000Z,-3.31
2022-12-12T03:19:40.000Z,-3.31
2022-12-12T03:20:40.000Z,-3.29
2022-12-12T03:21:40.000Z,-3.31
2022-12-12T03:22:40.000Z,-3.32
2022-12-12T03:23:40.000Z,-3.35
2022-12-12T03:24:40.000Z,-3.36
2022-12-12T03:25:40.000Z,-3.32
2022-12-12T03:26:40.000Z,-3.31
2022-12-12T03:27:40.000Z,-3.29
2022-12-12T03:28:40.000Z,-3.35
2022-12-12T03:29:40.000Z,-3.33
2022-12-12T03:30:40.000Z,-3.35
2022-12-12T03:31:40.000Z,-3.31
2022-12-12T03:32:40.000Z,-3.32
2022-12-12T03:33:40.000Z,-3.29
2022-12-12T03:34:40.000Z,-3.29
2022-12-12T03:35:40.000Z,-3.29
2022-12-12T03:36:40.000Z,-3.31
2022-12-12T03:37:40.000Z,-3.25
2022-12-12T03:38:40.000Z,-3.31
2022-12-12T03:39:40.000Z,-3.29
2022-12-12T03:40:40.000Z,-3.32
2022-12-12T03:41:40.000Z,-3.31
2022-12-12T03:42:40.000Z,-3.29
2022-12-12T03:43:40.000Z,-3.28
2022-12-12T03:44:40.000Z,-3.28
2022-12-12T03:45:40.000Z,-3.29
2022-12-12T03:46:40.000Z,-3.28
2022-12-12T03:47:40.000Z,-3.28
2022-12-12T03:48:40.000Z,-3.29
2022-12-12T03:49:40.000Z,-3.25
2022-12-12T03:50:40.000Z,-3.28
2022-12-12T03:51:40.000Z,-3.23
2022-12-12T03:52:40.000Z,-3.23
2022-12-12T03:53:40.000Z,-3.23
2022-12-12T03:54:40.000Z,-3.22
2022-12-12T03:55:40.000Z,-3.18
2022-12-12T03:56:40.000Z,-3.18
2022-12-12T03:57:40.000Z,-3.17
2022-12-12T03:58:40.000Z,-3.20
2022-12-12T03:59:40.000Z,-3.17
2022-12-12T04:00:40.000Z,-3.14
2022-12-12T04:01:40.000Z,-3.15
2022-12-12T04:02:40.000Z,-3.17
2022-12-12T04:03:40.000Z,-3.15
2022-12-12T04:04:40.000Z,-3.15
2022-12-12T04:05:40.000Z,-3.18
2022-12-12T04:06:40.000Z,-3.18
2022-12-12T04:07:40.000Z,-3.17
2022-12-12T04:08:40.000Z,-3.17
2022-12-12T04:09:40.000Z,-3.17
2022-12-12T04:10:40.000Z,-3.10
2022-12-12T04:11:40.000Z,-3.11
2022-12-12T04:12:40.000Z,-3.13
2022-12-12T04:13:40.000Z,-3.13
2022-12-12T04:14:40.000Z,-3.14
2022-12-12T04:15:40.000Z,-3.11
2022-12-12T04:16:40.000Z,-3.14
2022-12-12T04:17:40.000Z,-3.11
2022-12-12T04:18:40.000Z,-3.11
2022-12-12T04:19:40.000Z,-3.11
2022-12-12T04:20:40.000Z,-3.11
2022-12-12T04:21:40.000Z,-3.07
2022-12-12T04:22:40.000Z,-3.11
2022-12-12T04:23:40.000Z,-3.11
2022-12-12T04:24:40.000Z,-3.07
2022-12-12T04:25:39.000Z,-3.11
2022-12-12T04:26:39.000Z,-3.14
2022-12-12T04:27:39.000Z,-3.11
2022-12-12T04:28:39.000Z,-3.13
2022-12-12T04:29:39.000Z,-3.11
2022-12-12T04:30:39.000Z,-3.11
2022-12-12T04:31:39.000Z,-3.11
2022-12-12T04:32:39.000Z,-3.10
2022-12-12T04:33:39.000Z,-3.07
2022-12-12T04:34:39.000Z,-3.05
2022-12-12T04:35:39.000Z,-3.11
2022-12-12T04:36:39.000Z,-3.08
2022-12-12T04:37:39.000Z,-3.10
2022-12-12T04:38:39.000Z,-3.05
2022-12-12T04:39:39.000Z,-3.05
2022-12-12T04:40:39.000Z,-3.02
2022-12-12T04:41:39.000Z,-3.04
2022-12-12T04:42:39.000Z,-3.00
2022-12-12T04:43:39.000Z,-2.97
2022-12-12T04:44:39.000Z,-2.96
2022-12-12T04:45:39.000Z,-2.96
2022-12-12T04:46:39.000Z,-2.93
2022-12-12T04:47:39.000Z,-2.93
2022-12-12T04:48:39.000Z,-2.90
2022-12-12T04:49:39.000Z,-2.93
2022-12-12T04:50:39.000Z,-2.90
2022-12-12T04:51:39.000Z,-2.90
2022-12-12T04:52:39.000Z,-2.90
2022-12-12T04:53:39.000Z,-2.90
2022-12-12T04:54:39.000Z,-2.90
2022-12-12T04:55:39.000Z,-2.87
2022-12-12T04:56:39.000Z,-2.87
2022-12-12T04:57:39.000Z,-2.90
2022-12-12T04:58:39.000Z,-2.87
2022-12-12T04:59:39.000Z,-2.87
2022-12-12T05:00:39.000Z,-2.86
2022-12-12T05:01:39.000Z,-2.89
2022-12-12T05:02:39.000Z,-2.86
2022-12-12T05:03:39.000Z,-2.87
2022-12-12T05:04:39.000Z,-2.87
2022-12-12T05:05:39.000Z,-2.89
2022-12-12T05:06:39.000Z,-2.86
2022-12-12T05:07:39.000Z,-2.89
2022-12-12T05:08:39.000Z,-2.87
2022-12-12T05:09:39.000Z,-2.90
2022-12-12T05:10:39.000Z,-2.93
2022-12-12T05:11:39.000Z,-2.92
2022-12-12T05:12:39.000Z,-2.90
2022-12-12T05:13:39.000Z,-2.93
2022-12-12T05:14:39.000Z,-2.94
2022-12-12T05:15:39.000Z,-2.93
2022-12-12T05:16:39.000Z,-2.93
2022-12-12T05:17:39.000Z,-2.92
2022-12-12T05:18:39.000Z,-2.92
2022-12-12T05:19:39.000Z,-2.94
2022-12-12T05:20:39.000Z,-2.96
2022-12-12T05:21:39.000Z,-2.97
2022-12-12T05:22:39.000Z,-2.96
2022-12-12T05:23:39.000Z,-2.96
2022-12-12T05:24:39.000Z,-3.00
2022-12-12T05:25:39.000Z,-2.97
2022-12-12T05:26:39.000Z,-2.97
2022-12-12T05:27:39.000Z,-2.96
2022-12-12T05:28:39.000Z,-3.00
2022-12-12T05:29:39.000Z,-2.93
2022-12-12T05:30:39.000Z,-2.97
2022-12-12T05:31:39.000Z,-2.96
2022-12-12T05:32:39.000Z,-3.00
2022-12-12T05:33:39.000Z,-2.97
2022-12-12T05:34:39.000Z,-3.02
2022-12-12T05:35:39.000Z,-2.97
2022-12-12T05:36:39.000Z,-2.99
2022-12-12T05:37:39.000Z,-3.04
2022-12-12T05:38:39.000Z,-3.04
2022-12-12T05:39:39.000Z,-3.05
2022-12-12T05:40:39.000Z,-3.07
2022-12-12T05:41:39.000Z,-3.02
2022-12-12T05:42:39.000Z,-3.02
2022-12-12T05:43:39.000Z,-3.02
2022-12-12T05:44:39.000Z,-3.00
2022-12-12T05:45:39.000Z,-3.00
2022-12-12T05:46:39.000Z,-2.99
2022-12-12T05:47:39.000Z,-2.99
2022-12-12T05:48:39.000Z,-2.97
2022-12-12T05:49:39.000Z,-2.96
2022-12-12T05:50:39.000Z,-3.00
2022-12-12T05:51:39.000Z,-2.93
2022-12-12T05:52:39.000Z,-2.97
2022-12-12T05:53:39.000Z,-2.96
2022-12-12T05:54:39.000Z,-2.99
2022-12-12T05:55:39.000Z,-2.93
2022-12-12T05:56:39.000Z,-2.97
2022-12-12T05:57:39.000Z,-2.97
2022-12-12T05:58:39.000Z,-2.99
2022-12-12T05:59:39.000Z,-3.00
2022-12-12T06:00:39.000Z,-2.97
2022-12-12T06:01:39.000Z,-2.96
2022-12-12T06:02:39.000Z,-2.93
2022-12-12T06:03:38.000Z,-2.96
2022-12-12T06:04:38.000Z,-2.99
2022-12-12T06:05:38.000Z,-2.97
2022-12-12T06:06:38.000Z,-2.97
2022-12-12T06:07:38.000Z,-2.96
2022-12-12T06:08:38.000Z,-2.92
2022-12-12T06:09:38.000Z,-2.94
2022-12-12T06:10:38.000Z,-2.94
2022-12-12T06:11:38.000Z,-2.94
2022-12-12T06:12:38.000Z,-2.94
2022-12-12T06:13:38.000Z,-2.93
2022-12-12T06:14:38.000Z,-2.93
2022-12-12T06:15:38.000Z,-2.92
2022-12-12T06:16:38.000Z,-2.96
2022-12-12T06:17:38.000Z,-2.97
2022-12-12T06:18:38.000Z,-2.94
2022-12-12T06:19:38.000Z,-2.89
2022-12-12T06:20:38.000Z,-2.93
2022-12-12T06:21:38.000Z,-2.90
2022-12-12T06:22:38.000Z,-2.93
2022-12-12T06:23:38.000Z,-2.90
2022-12-12T06:24:38.000Z,-2.90
2022-12-12T06:25:38.000Z,-2.92
2022-12-12T06:26:38.000Z,-2.92
2022-12-12T06:27:38.000Z,-2.90
2022-12-12T06:28:38.000Z,-2.94
2022-12-12T06:29:38.000Z,-2.92
2022-12-12T06:30:38.000Z,-2.92
2022-12-12T06:31:38.000Z,-2.90
2022-12-12T06:32:38.000Z,-2.90
2022-12-12T06:33:38.000Z,-2.90
2022-12-12T06:34:38.000Z,-2.87
2022-12-12T06:35:38.000Z,-2.89
2022-12-12T06:36:38.000Z,-2.87
2022-12-12T06:37:38.000Z,-2.90
2022-12-12T06:38:38.000Z,-2.90
2022-12-12T06:39:38.000Z,-2.87
2022-12-12T06:40:38.000Z,-2.86
2022-12-12T06:41:38.000Z,-2.89
2022-12-12T06:42:38.000Z,-2.89
2022-12-12T06:43:38.000Z,-2.89
2022-12-12T06:44:38.000Z,-2.87
2022-12-12T06:45:38.000Z,-2.82
2022-12-12T06:46:38.000Z,-2.87
2022-12-12T06:47:38.000Z,-2.89
2022-12-12T06:48:38.000Z,-2.86
2022-12-12T06:49:38.000Z,-2.86
2022-12-12T06:50:38.000Z,-2.85
2022-12-12T06:51:38.000Z,-2.81
2022-12-12T06:52:38.000Z,-2.81
2022-12-12T06:53:38.000Z,-2.79
2022-12-12T06:54:38.000Z,-2.79
2022-12-12T06:55:38.000Z,-2.81
2022-12-12T06:56:38.000Z,-2.81
2022-12-12T06:57:38.000Z,-2.85
2022-12-12T06:58:38.000Z,-2.78
2022-12-12T06:59:38.000Z,-2.81
2022-12-12T07:00:38.000Z,-2.79
2022-12-12T07:01:38.000Z,-2.76
2022-12-12T07:02:38.000Z,-2.76
2022-12-12T07:03:38.000Z,-2.81
2022-12-12T07:04:38.000Z,-2.76
2022-12-12T07:05:38.000Z,-2.79
2022-12-12T07:06:38.000Z,-2.81
2022-12-12T07:07:38.000Z,-2.76
2022-12-12T07:08:38.000Z,-2.79
2022-12-12T07:09:38.000Z,-2.76
2022-12-12T07:10:38.000Z,-2.76
2022-12-12T07:11:38.000Z,-2.72
2022-12-12T07:12:38.000Z,-2.76
2022-12-12T07:13:38.000Z,-2.74
2022-12-12T07:14:38.000Z,-2.76
2022-12-12T07:15:38.000Z,-2.72
2022-12-12T07:16:38.000Z,-2.74
2022-12-12T07:17:38.000Z,-2.75
2022-12-12T07:18:38.000Z,-2.75
2022-12-12T07:19:38.000Z,-2.76
2022-12-12T07:20:38.000Z,-2.72
2022-12-12T07:21:38.000Z,-2.72
2022-12-12T07:22:38.000Z,-2.71
2022-12-12T07:23:38.000Z,-2.68
2022-12-12T07:24:38.000Z,-2.72
2022-12-12T07:25:38.000Z,-2.71
2022-12-12T07:26:38.000Z,-2.69
2022-12-12T07:27:38.000Z,-2.66
2022-12-12T07:28:38.000Z,-2.68
2022-12-12T07:29:38.000Z,-2.68
2022-12-12T07:30:38.000Z,-2.64
2022-12-12T07:31:38.000Z,-2.64
2022-12-12T07:32:38.000Z,-2.61
2022-12-12T07:33:38.000Z,-2.63
2022-12-12T07:34:38.000Z,-2.63
2022-12-12T07:35:38.000Z,-2.60
2022-12-12T07:36:38.000Z,-2.63
2022-12-12T07:37:38.000Z,-2.60
2022-12-12T07:38:38.000Z,-2.60
2022-12-12T07:39:38.000Z,-2.58
2022-12-12T07:40:38.000Z,-2.58
2022-12-12T07:41:38.000Z,-2.61
2022-12-12T07:42:38.000Z,-2.54
2022-12-12T07:43:38.000Z,-2.57
2022-12-12T07:44:38.000Z,-2.57
2022-12-12T07:45:38.000Z,-2.58
2022-12-12T07:46:38.000Z,-2.54
2022-12-12T07:47:38.000Z,-2.51
2022-12-12T07:48:38.000Z,-2.53
2022-12-12T07:49:38.000Z,-2.57
2022-12-12T07:50:38.000Z,-2.53
2022-12-12T07:51:38.000Z,-2.51
2022-12-12T07:52:38.000Z,-2.48
2022-12-12T07:53:38.000Z,-2.48
2022-12-12T07:54:38.000Z,-2.50
2022-12-12T07:55:38.000Z,-2.51
2022-12-12T07:56:38.000Z,-2.45
2022-12-12T07:57:38.000Z,-2.45
2022-12-12T07:58:38.000Z,-2.42
2022-12-12T07:59:38.000Z,-2.47
2022-12-12T08:00:38.000Z,-2.42
2022-12-12T08:01:38.000Z,-2.43
2022-12-12T08:02:38.000Z,-2.40
2022-12-12T08:03:38.000Z,-2.42
2022-12-12T08:04:38.000Z,-2.36
2022-12-12T08:05:38.000Z,-2.39
2022-12-12T08:06:38.000Z,-2.36
2022-12-12T08:07:38.000Z,-2.35
2022-12-12T08:08:38.000Z,-2.33
2022-12-12T08:09:38.000Z,-2.35
2022-12-12T08:10:38.000Z,-2.32
2022-12-12T08:11:38.000Z,-2.29
2022-12-12T08:12:38.000Z,-2.26
2022-12-12T08:13:38.000Z,-2.21
2022-12-12T08:14:38.000Z,-2.21
2022-12-12T08:15:38.000Z,-2.20
2022-12-12T08:16:38.000Z,-2.17
2022-12-12T08:17:38.000Z,-2.16
2022-12-12T08:18:38.000Z,-2.16
2022-12-12T08:19:38.000Z,-2.10
2022-12-12T08:20:38.000Z,-2.06
2022-12-12T08:21:38.000Z,-2.05
2022-12-12T08:22:38.000Z,-2.06
2022-12-12T08:23:37.000Z,-2.03
2022-12-12T08:24:37.000Z,-2.00
2022-12-12T08:25:37.000Z,-2.02
2022-12-12T08:26:37.000Z,-2.02
2022-12-12T08:27:37.000Z,-1.99
2022-12-12T08:28:37.000Z,-1.96
2022-12-12T08:29:37.000Z,-1.98
2022-12-12T08:30:37.000Z,-1.98
2022-12-12T08:31:37.000Z,-1.96
2022-12-12T08:32:37.000Z,-1.93
2022-12-12T08:33:37.000Z,-1.90
2022-12-12T08:34:37.000Z,-1.92
2022-12-12T08:35:37.000Z,-1.93
2022-12-12T08:36:37.000Z,-1.88
2022-12-12T08:37:37.000Z,-1.87
2022-12-12T08:38:37.000Z,-1.88
2022-12-12T08:39:37.000Z,-1.82
2022-12-12T08:40:37.000Z,-1.85
2022-12-12T08:41:37.000Z,-1.85
2022-12-12T08:42:37.000Z,-1.87
2022-12-12T08:43:37.000Z,-1.84
2022-12-12T08:44:37.000Z,-1.84
2022-12-12T08:45:37.000Z,-1.84
2022-12-12T08:46:37.000Z,-1.82
2022-12-12T08:47:37.000Z,-1.82
2022-12-12T08:48:37.000Z,-1.81
2022-12-12T08:49:37.000Z,-1.81
2022-12-12T08:50:37.000Z,-1.82
2022-12-12T08:51:37.000Z,-1.82
2022-12-12T08:52:37.000Z,-1.81
2022-12-12T08:53:37.000Z,-1.78
2022-12-12T08:54:37.000Z,-1.84
2022-12-12T08:55:37.000Z,-1.84
2022-12-12T08:56:37.000Z,-1.84
2022-12-12T08:57:37.000Z,-1.87
2022-12-12T08:58:37.000Z,-1.84
2022-12-12T08:59:37.000Z,-1.82
2022-12-12T09:00:37.000Z,-1.78
2022-12-12T09:01:37.000Z,-1.80
2022-12-12T09:02:37.000Z,-1.80
2022-12-12T09:03:37.000Z,-1.82
2022-12-12T09:04:37.000Z,-1.80
2022-12-12T09:05:37.000Z,-1.78
2022-12-12T09:06:37.000Z,-1.77
2022-12-12T09:07:37.000Z,-1.74
2022-12-12T09:08:37.000Z,-1.75
2022-12-12T09:09:37.000Z,-1.77
2022-12-12T09:10:37.000Z,-1.74
2022-12-12T09:11:37.000Z,-1.75
2022-12-12T09:12:37.000Z,-1.74
2022-12-12T09:13:37.000Z,-1.74
2022-12-12T09:14:37.000Z,-1.69
2022-12-12T09:15:37.000Z,-1.69
2022-12-12T09:16:37.000Z,-1.66
2022-12-12T09:17:37.000Z,-1.59
2022-12-12T09:18:37.000Z,-1.57
2022-12-12T09:19:37.000Z,-1.59
2022-12-12T09:20:37.000Z,-1.56
2022-12-12T09:21:37.000Z,-1.63
2022-12-12T09:22:37.000Z,-1.59
2022-12-12T09:23:37.000Z,-1.59
2022-12-12T09:24:37.000Z,-1.60
2022-12-12T09:25:37.000Z,-1.60
2022-12-12T09:26:37.000Z,-1.60
2022-12-12T09:27:37.000Z,-1.59
2022-12-12T09:28:37.000Z,-1.62
2022-12-12T09:29:37.000Z,-1.60
2022-12-12T09:30:37.000Z,-1.62
2022-12-12T09:31:37.000Z,-1.57
2022-12-12T09:32:37.000Z,-1.56
2022-12-12T09:33:37.000Z,-1.56
2022-12-12T09:34:37.000Z,-1.56
2022-12-12T09:35:37.000Z,-1.53
2022-12-12T09:36:37.000Z,-1.49
2022-12-12T09:37:37.000Z,-1.49
2022-12-12T09:38:37.000Z,-1.49
2022-12-12T09:39:37.000Z,-1.54
2022-12-12T09:40:37.000Z,-1.51
2022-12-12T09:41:37.000Z,-1.56
2022-12-12T09:42:37.000Z,-1.49
2022-12-12T09:43:37.000Z,-1.54
2022-12-12T09:44:37.000Z,-1.56
2022-12-12T09:45:37.000Z,-1.54
2022-12-12T09:46:37.000Z,-1.53
2022-12-12T09:47:37.000Z,-1.49
2022-12-12T09:48:37.000Z,-1.49
2022-12-12T09:49:37.000Z,-1.46
2022-12-12T09:50:37.000Z,-1.51
2022-12-12T09:51:37.000Z,-1.49
2022-12-12T09:52:36.000Z,-1.54
2022-12-12T09:53:36.000Z,-1.49
2022-12-12T09:54:36.000Z,-1.49
2022-12-12T09:55:36.000Z,-1.49
2022-12-12T09:56:36.000Z,-1.53
2022-12-12T09:57:36.000Z,-1.54
2022-12-12T09:58:36.000Z,-1.56
2022-12-12T09:59:36.000Z,-1.60
2022-12-12T09:59:36.000Z,-1.60
2022-12-12T10:00:36.000Z,-1.60
2022-12-12T10:00:36.000Z,-1.60
2022-12-12T10:01:36.000Z,-1.62
2022-12-12T10:01:36.000Z,-1.62
2022-12-12T10:02:36.000Z,-1.60
2022-12-12T10:02:36.000Z,-1.60
2022-12-12T10:03:36.000Z,-1.62
2022-12-12T10:03:36.000Z,-1.62
2022-12-12T10:04:36.000Z,-1.66
2022-12-12T10:05:36.000Z,-1.62
2022-12-12T10:06:36.000Z,-1.67
2022-12-12T10:07:36.000Z,-1.67
2022-12-12T10:08:36.000Z,-1.63
2022-12-12T10:09:36.000Z,-1.64
2022-12-12T10:10:36.000Z,-1.66
2022-12-12T10:11:36.000Z,-1.69
2022-12-12T10:12:36.000Z,-1.62
2022-12-12T10:13:36.000Z,-1.62
2022-12-12T10:14:36.000Z,-1.69
2022-12-12T10:15:36.000Z,-1.69
2022-12-12T10:16:36.000Z,-1.66
2022-12-12T10:17:36.000Z,-1.70
2022-12-12T10:18:36.000Z,-1.66
2022-12-12T10:19:36.000Z,-1.70
2022-12-12T10:20:36.000Z,-1.74
2022-12-12T10:21:36.000Z,-1.72
2022-12-12T10:22:36.000Z,-1.72
2022-12-12T10:23:36.000Z,-1.69
2022-12-12T10:24:36.000Z,-1.72
2022-12-12T10:25:36.000Z,-1.69
2022-12-12T10:26:36.000Z,-1.72
2022-12-12T10:27:36.000Z,-1.69
2022-12-12T10:28:36.000Z,-1.69
2022-12-12T10:29:36.000Z,-1.69
2022-12-12T10:30:36.000Z,-1.64
2022-12-12T10:31:36.000Z,-1.62
2022-12-12T10:32:36.000Z,-1.59
2022-12-12T10:33:36.000Z,-1.56
2022-12-12T10:34:36.000Z,-1.59
2022-12-12T10:35:36.000Z,-1.51
2022-12-12T10:36:36.000Z,-1.53
2022-12-12T10:37:36.000Z,-1.53
2022-12-12T10:38:36.000Z,-1.49
2022-12-12T10:39:36.000Z,-1.51
2022-12-12T10:40:36.000Z,-1.53
2022-12-12T10:41:36.000Z,-1.53
2022-12-12T10:42:36.000Z,-1.54
2022-12-12T10:43:36.000Z,-1.51
2022-12-12T10:44:36.000Z,-1.46
2022-12-12T10:45:36.000Z,-1.51
2022-12-12T10:46:36.000Z,-1.56
2022-12-12T10:47:36.000Z,-1.62
2022-12-12T10:48:36.000Z,-1.63
2022-12-12T10:49:36.000Z,-1.59
2022-12-12T10:50:36.000Z,-1.56
2022-12-12T10:51:36.000Z,-1.53
2022-12-12T10:52:36.000Z,-1.46
2022-12-12T10:53:36.000Z,-1.51
2022-12-12T10:54:36.000Z,-1.51
2022-12-12T10:55:36.000Z,-1.56
2022-12-12T10:56:36.000Z,-1.54
2022-12-12T10:57:36.000Z,-1.53
2022-12-12T10:58:36.000Z,-1.56
2022-12-12T10:59:36.000Z,-1.62
2022-12-12T11:00:36.000Z,-1.63
2022-12-12T11:01:36.000Z,-1.57
2022-12-12T11:02:36.000Z,-1.54
2022-12-12T11:03:36.000Z,-1.53
2022-12-12T11:04:35.000Z,-1.53
2022-12-12T11:05:35.000Z,-1.54
2022-12-12T11:06:35.000Z,-1.60
2022-12-12T11:07:35.000Z,-1.59
2022-12-12T11:08:35.000Z,-1.60
2022-12-12T11:09:35.000Z,-1.63
2022-12-12T11:10:35.000Z,-1.70
2022-12-12T11:11:35.000Z,-1.70
2022-12-12T11:12:35.000Z,-1.69
2022-12-12T11:13:35.000Z,-1.74
2022-12-12T11:14:35.000Z,-1.75
2022-12-12T11:15:35.000Z,-1.82
2022-12-12T11:16:35.000Z,-1.78
2022-12-12T11:17:35.000Z,-1.78
2022-12-12T11:18:35.000Z,-1.87
2022-12-12T11:19:35.000Z,-1.90
2022-12-12T11:20:35.000Z,-1.90
2022-12-12T11:21:35.000Z,-1.85
2022-12-12T11:22:35.000Z,-1.92
2022-12-12T11:23:35.000Z,-1.90
2022-12-12T11:24:35.000Z,-1.96
2022-12-12T11:25:35.000Z,-1.99
2022-12-12T11:26:35.000Z,-2.02
2022-12-12T11:27:35.000Z,-1.98
2022-12-12T11:28:35.000Z,-1.98
2022-12-12T11:29:35.000Z,-2.00
2022-12-12T11:30:35.000Z,-2.03
2022-12-12T11:31:35.000Z,-2.00
2022-12-12T11:32:35.000Z,-1.99
2022-12-12T11:33:35.000Z,-1.96
2022-12-12T11:34:35.000Z,-1.95
2022-12-12T11:35:35.000Z,-1.90
2022-12-12T11:36:35.000Z,-1.84
2022-12-12T11:37:35.000Z,-1.81
2022-12-12T11:38:35.000Z,-1.84
2022-12-12T11:39:35.000Z,-1.80
2022-12-12T11:40:35.000Z,-1.78
2022-12-12T11:41:35.000Z,-1.88
2022-12-12T11:42:35.000Z,-1.90
2022-12-12T11:43:35.000Z,-1.92
2022-12-12T11:44:35.000Z,-1.92
2022-12-12T11:45:35.000Z,-1.96
2022-12-12T11:46:35.000Z,-1.93
2022-12-12T11:47:35.000Z,-1.90
2022-12-12T11:48:35.000Z,-1.93
2022-12-12T11:49:35.000Z,-1.95
2022-12-12T11:50:35.000Z,-1.90
2022-12-12T11:51:35.000Z,-1.88
2022-12-12T11:52:35.000Z,-1.85
2022-12-12T11:53:35.000Z,-1.87
2022-12-12T11:54:35.000Z,-1.87
2022-12-12T11:55:35.000Z,-1.92
2022-12-12T11:56:35.000Z,-1.96
2022-12-12T11:57:35.000Z,-1.96
2022-12-12T11:58:35.000Z,-1.96
2022-12-12T11:59:35.000Z,-1.98
2022-12-12T12:00:35.000Z,-2.00
2022-12-12T12:01:35.000Z,-2.05
2022-12-12T12:02:34.000Z,-1.99
2022-12-12T12:03:34.000Z,-2.02
2022-12-12T12:04:34.000Z,-2.02
2022-12-12T12:05:34.000Z,-2.02
2022-12-12T12:06:34.000Z,-2.00
2022-12-12T12:07:34.000Z,-2.03
2022-12-12T12:08:34.000Z,-2.03
2022-12-12T12:09:34.000Z,-2.05
2022-12-12T12:10:34.000Z,-2.10
2022-12-12T12:11:34.000Z,-2.10
2022-12-12T12:12:34.000Z,-2.11
2022-12-12T12:13:34.000Z,-2.08
2022-12-12T12:14:34.000Z,-2.06
2022-12-12T12:15:34.000Z,-2.05
2022-12-12T12:16:34.000Z,-2.05
2022-12-12T12:17:34.000Z,-2.02
2022-12-12T12:18:34.000Z,-2.02
2022-12-12T12:19:34.000Z,-1.99
2022-12-12T12:20:34.000Z,-1.98
2022-12-12T12:21:34.000Z,-1.95
2022-12-12T12:22:34.000Z,-1.96
2022-12-12T12:23:34.000Z,-1.96
2022-12-12T12:24:34.000Z,-1.99
2022-12-12T12:25:34.000Z,-1.95
2022-12-12T12:26:34.000Z,-1.98
2022-12-12T12:27:34.000Z,-1.99
2022-12-12T12:28:34.000Z,-1.99
2022-12-12T12:29:34.000Z,-1.96
2022-12-12T12:30:34.000Z,-2.00
2022-12-12T12:31:34.000Z,-2.03
2022-12-12T12:32:34.000Z,-2.00
2022-12-12T12:33:34.000Z,-1.99
2022-12-12T12:34:34.000Z,-2.00
2022-12-12T12:35:34.000Z,-2.02
2022-12-12T12:36:34.000Z,-2.05
2022-12-12T12:37:34.000Z,-2.10
2022-12-12T12:38:34.000Z,-2.13
2022-12-12T12:39:34.000Z,-2.06
2022-12-12T12:40:34.000Z,-2.06
2022-12-12T12:41:34.000Z,-2.08
2022-12-12T12:42:34.000Z,-1.98
2022-12-12T12:43:34.000Z,-2.00
2022-12-12T12:44:34.000Z,-2.03
2022-12-12T12:45:34.000Z,-2.03
2022-12-12T12:46:34.000Z,-2.02
2022-12-12T12:47:34.000Z,-2.08